createdAt,value
2022-08-21T00:00:55.867Z,27.30
2022-08-21T00:05:58.180Z,27.30
2022-08-21T00:11:00.759Z,27.20
2022-08-21T00:16:04.076Z,27.20
2022-08-21T00:21:06.366Z,27.20
2022-08-21T00:26:10.811Z,27.10
2022-08-21T00:31:13.100Z,27.10
2022-08-21T00:36:15.908Z,27.10
2022-08-21T00:41:36.807Z,27.10
2022-08-21T00:46:42.496Z,27.00
2022-08-21T00:51:56.150Z,27.00
2022-08-21T00:57:02.841Z,27.00
2022-08-21T01:02:08.100Z,27.00
2022-08-21T01:07:11.109Z,27.00
2022-08-21T01:12:14.526Z,27.00
2022-08-21T01:17:19.280Z,27.00
2022-08-21T01:22:21.466Z,27.00
2022-08-21T01:27:23.761Z,27.00
2022-08-21T01:32:26.564Z,26.90
2022-08-21T01:37:28.753Z,26.90
2022-08-21T01:42:30.944Z,26.90
2022-08-21T01:47:33.440Z,26.90
2022-08-21T01:52:35.631Z,26.80
2022-08-21T01:57:38.435Z,26.80
2022-08-21T02:02:41.752Z,26.80
2022-08-21T02:07:49.162Z,26.80
2022-08-21T02:12:51.842Z,26.80
2022-08-21T02:17:58.454Z,26.90
2022-08-21T02:23:01.123Z,26.80
2022-08-21T02:28:09.590Z,26.80
2022-08-21T02:33:13.216Z,26.80
2022-08-21T02:38:20.109Z,26.70
2022-08-21T02:43:25.342Z,26.70
2022-08-21T02:48:30.734Z,26.70
2022-08-21T02:53:34.869Z,26.60
2022-08-21T02:58:41.018Z,26.60
2022-08-21T03:03:45.158Z,26.60
2022-08-21T03:08:47.681Z,26.50
2022-08-21T03:13:49.871Z,26.50
2022-08-21T03:18:53.699Z,26.50
2022-08-21T03:23:56.197Z,26.50
2022-08-21T03:28:58.489Z,26.40
2022-08-21T03:34:00.683Z,26.40
2022-08-21T03:39:04.611Z,26.40
2022-08-21T03:44:06.904Z,26.40
2022-08-21T03:49:09.103Z,26.30
2022-08-21T03:54:11.266Z,26.30
2022-08-21T03:59:13.689Z,26.20
2022-08-21T04:04:15.971Z,26.20
2022-08-21T04:09:19.290Z,26.20
2022-08-21T04:14:21.609Z,26.20
2022-08-21T04:19:24.591Z,26.10
2022-08-21T04:24:26.780Z,26.10
2022-08-21T04:29:32.351Z,26.10
2022-08-21T04:34:37.096Z,26.00
2022-08-21T04:39:39.443Z,26.00
2022-08-21T04:44:42.091Z,26.00
2022-08-21T04:49:45.816Z,25.90
2022-08-21T04:54:53.130Z,25.90
2022-08-21T04:59:57.156Z,25.90
2022-08-21T05:05:00.645Z,25.90
2022-08-21T05:10:04.302Z,25.80
2022-08-21T05:15:07.019Z,25.80
2022-08-21T05:20:15.336Z,25.70
2022-08-21T05:25:17.629Z,25.70
2022-08-21T05:30:24.731Z,25.70
2022-08-21T05:35:28.830Z,25.60
2022-08-21T05:40:31.799Z,25.50
2022-08-21T05:45:41.781Z,25.50
2022-08-21T05:50:47.213Z,25.50
2022-08-21T05:55:50.530Z,25.50
2022-08-21T06:00:53.425Z,25.50
2022-08-21T06:05:56.441Z,25.50
2022-08-21T06:11:00.363Z,25.40
2022-08-21T06:16:08.806Z,25.40
2022-08-21T06:21:12.420Z,25.40
2022-08-21T06:26:15.434Z,25.40
2022-08-21T06:31:23.263Z,25.40
2022-08-21T06:36:25.551Z,25.30
2022-08-21T06:41:27.940Z,25.40
2022-08-21T06:46:31.866Z,25.40
2022-08-21T06:51:38.628Z,25.40
2022-08-21T06:56:41.575Z,25.40
2022-08-21T07:01:44.515Z,25.30
2022-08-21T07:06:47.997Z,25.30
2022-08-21T07:11:55.850Z,25.20
2022-08-21T07:16:58.620Z,25.20
2022-08-21T07:22:03.172Z,25.20
2022-08-21T07:27:09.804Z,25.20
2022-08-21T07:32:21.291Z,25.20
2022-08-21T07:37:23.826Z,25.10
2022-08-21T07:42:26.766Z,25.00
2022-08-21T07:47:42.492Z,25.00
2022-08-21T07:52:54.464Z,24.90
2022-08-21T07:57:56.769Z,24.90
2022-08-21T08:03:00.887Z,24.90
2022-08-21T08:08:08.120Z,24.90
2022-08-21T08:13:11.499Z,24.80
2022-08-21T08:18:27.331Z,24.80
2022-08-21T08:23:31.698Z,24.70
2022-08-21T08:28:36.622Z,24.70
2022-08-21T08:33:38.892Z,24.70
2022-08-21T08:38:41.513Z,24.60
2022-08-21T08:43:55.371Z,24.60
2022-08-21T08:49:23.554Z,24.60
2022-08-21T08:54:35.976Z,24.60
2022-08-21T08:59:44.218Z,24.70
2022-08-21T09:04:49.270Z,24.70
2022-08-21T09:10:24.304Z,24.70
2022-08-21T09:15:41.946Z,24.70
2022-08-21T09:21:13.405Z,24.70
2022-08-21T09:26:25.593Z,24.80
2022-08-21T09:31:39.174Z,24.80
2022-08-21T09:36:52.187Z,24.80
2022-08-21T09:42:07.401Z,24.80
2022-08-21T09:47:18.277Z,24.80
2022-08-21T09:52:26.026Z,24.80
2022-08-21T09:57:46.250Z,24.70
2022-08-21T10:02:52.658Z,24.70
2022-08-21T10:07:56.825Z,24.70
2022-08-21T10:13:22.349Z,24.70
2022-08-21T10:18:33.162Z,24.70
2022-08-21T10:23:44.134Z,24.70
2022-08-21T10:29:35.853Z,24.70
2022-08-21T10:35:15.487Z,24.70
2022-08-21T10:40:25.895Z,24.70
2022-08-21T10:46:03.267Z,24.70
2022-08-21T10:51:43.723Z,24.70
2022-08-21T10:56:56.762Z,24.70
2022-08-21T11:02:34.773Z,24.60
2022-08-21T11:08:05.929Z,24.60
2022-08-21T11:13:30.676Z,24.70
2022-08-21T11:19:06.582Z,24.70
2022-08-21T11:24:32.617Z,24.70
2022-08-21T11:29:40.541Z,24.60
2022-08-21T11:35:08.993Z,24.60
2022-08-21T11:40:26.028Z,24.60
2022-08-21T11:45:28.349Z,24.70
2022-08-21T11:50:35.571Z,24.70
2022-08-21T11:55:44.581Z,24.60
2022-08-21T12:00:52.214Z,24.70
2022-08-21T12:06:00.750Z,24.70
2022-08-21T12:11:16.759Z,24.60
2022-08-21T12:16:34.686Z,24.70
2022-08-21T12:21:55.527Z,24.60
2022-08-21T12:27:02.116Z,24.60
2022-08-21T12:32:10.546Z,24.50
2022-08-21T12:37:22.354Z,24.60
2022-08-21T12:42:39.386Z,24.50
2022-08-21T12:47:50.223Z,24.50
2022-08-21T12:53:03.624Z,24.50
2022-08-21T12:58:06.423Z,24.50
2022-08-21T13:03:09.097Z,24.50
2022-08-21T13:08:14.766Z,24.50
2022-08-21T13:13:24.998Z,24.50
2022-08-21T13:18:34.730Z,24.50
2022-08-21T13:23:37.023Z,24.50
2022-08-21T13:28:39.417Z,24.50
2022-08-21T13:33:42.548Z,24.50
2022-08-21T13:38:46.717Z,24.50
2022-08-21T13:44:02.156Z,24.50
2022-08-21T13:49:07.113Z,24.40
2022-08-21T13:54:40.410Z,24.40
2022-08-21T13:59:42.792Z,24.40
2022-08-21T14:04:57.276Z,24.40
2022-08-21T14:10:20.242Z,24.40
2022-08-21T14:15:30.019Z,24.40
2022-08-21T14:20:35.398Z,24.30
2022-08-21T14:25:45.639Z,24.30
2022-08-21T14:30:51.422Z,24.30
2022-08-21T14:35:54.628Z,24.30
2022-08-21T14:41:06.029Z,24.20
2022-08-21T14:46:14.426Z,24.30
2022-08-21T14:51:16.854Z,24.20
2022-08-21T14:56:24.271Z,24.30
2022-08-21T15:01:28.126Z,24.30
2022-08-21T15:06:30.692Z,24.30
2022-08-21T15:11:41.674Z,24.20
2022-08-21T15:16:45.313Z,24.20
2022-08-21T15:21:47.743Z,24.20
2022-08-21T15:26:50.509Z,24.20
2022-08-21T15:32:02.137Z,24.20
2022-08-21T15:37:08.604Z,24.10
2022-08-21T15:42:13.101Z,24.10
2022-08-21T15:47:19.186Z,24.10
2022-08-21T15:52:22.742Z,24.10
2022-08-21T15:57:26.776Z,24.10
2022-08-21T16:02:34.696Z,24.10
2022-08-21T16:07:37.614Z,24.10
2022-08-21T16:12:45.421Z,24.10
2022-08-21T16:17:52.216Z,24.10
2022-08-21T16:22:56.683Z,24.10
2022-08-21T16:28:01.412Z,24.10
2022-08-21T16:33:06.156Z,24.10
2022-08-21T16:38:08.451Z,24.10
2022-08-21T16:43:11.050Z,24.10
2022-08-21T16:48:13.342Z,24.10
2022-08-21T16:53:16.659Z,24.10
2022-08-21T16:58:30.210Z,24.10
2022-08-21T17:03:45.717Z,24.00
2022-08-21T17:08:52.501Z,24.00
2022-08-21T17:13:57.562Z,24.00
2022-08-21T17:19:00.463Z,24.00
2022-08-21T17:24:03.164Z,23.90
2022-08-21T17:29:09.445Z,23.90
2022-08-21T17:34:14.043Z,23.90
2022-08-21T17:39:22.306Z,23.90
2022-08-21T17:44:33.206Z,23.80
2022-08-21T17:49:36.322Z,23.80
2022-08-21T17:54:40.870Z,23.80
2022-08-21T17:59:43.364Z,23.90
2022-08-21T18:04:46.377Z,23.80
2022-08-21T18:09:48.971Z,23.80
2022-08-21T18:14:51.674Z,23.80
2022-08-21T18:19:54.401Z,23.80
2022-08-21T18:24:57.487Z,23.80
2022-08-21T18:30:03.061Z,23.80
2022-08-21T18:35:07.438Z,23.80
2022-08-21T18:40:15.818Z,23.80
2022-08-21T18:45:20.837Z,23.80
2022-08-21T18:50:26.416Z,23.80
2022-08-21T18:55:30.301Z,23.80
2022-08-21T19:00:44.352Z,23.80
2022-08-21T19:05:47.861Z,23.80
2022-08-21T19:10:54.919Z,23.80
2022-08-21T19:16:04.139Z,23.80
2022-08-21T19:21:07.789Z,23.80
2022-08-21T19:26:13.129Z,23.80
2022-08-21T19:31:19.740Z,23.80
2022-08-21T19:36:34.528Z,23.80
2022-08-21T19:41:51.130Z,23.80
2022-08-21T19:46:57.687Z,23.70
2022-08-21T19:52:01.813Z,23.70
2022-08-21T19:57:06.699Z,23.70
2022-08-21T20:02:15.098Z,23.70
2022-08-21T20:07:18.772Z,23.70
2022-08-21T20:12:30.248Z,23.80
2022-08-21T20:17:33.950Z,23.70
2022-08-21T20:22:36.854Z,23.80
2022-08-21T20:27:40.495Z,23.80
2022-08-21T20:32:45.946Z,23.80
2022-08-21T20:37:58.616Z,23.80
2022-08-21T20:43:04.935Z,23.80
2022-08-21T20:48:12.470Z,23.80
2022-08-21T20:53:53.140Z,23.80
2022-08-21T20:59:14.672Z,23.80
2022-08-21T21:04:26.784Z,23.80
2022-08-21T21:09:41.126Z,23.80
2022-08-21T21:14:48.833Z,23.80
2022-08-21T21:20:03.444Z,23.80
2022-08-21T21:25:27.637Z,23.80
2022-08-21T21:30:47.250Z,23.80
2022-08-21T21:36:12.130Z,23.80
2022-08-21T21:41:42.928Z,23.80
2022-08-21T21:47:00.925Z,23.80
2022-08-21T21:52:21.691Z,23.80
2022-08-21T21:57:35.901Z,23.80
2022-08-21T22:03:03.406Z,23.80
2022-08-21T22:08:12.417Z,23.80
2022-08-21T22:13:28.225Z,23.80
2022-08-21T22:18:36.548Z,23.70
2022-08-21T22:23:52.347Z,23.70
2022-08-21T22:28:55.153Z,23.60
2022-08-21T22:34:17.825Z,23.60
2022-08-21T22:45:09.394Z,23.60
2022-08-21T22:50:21.790Z,23.50
2022-08-21T23:01:23.186Z,23.50
2022-08-21T23:06:43.678Z,23.40
2022-08-21T23:11:50.998Z,23.40
2022-08-21T23:16:57.782Z,23.40
2022-08-21T23:22:22.246Z,23.40
2022-08-21T23:28:11.784Z,23.50
2022-08-21T23:33:38.803Z,23.50
2022-08-21T23:39:26.107Z,23.50
2022-08-21T23:50:28.839Z,23.50
2022-08-21T23:56:22.503Z,23.50
